Time;durP1;ratioP1;P1;durP2;ratioP2;P2;SDS_P1;SDS_P2;PMS_P1;PMS_P2;Temp;Humidity;BMP_temperature;BMP_pressure;BME280_temperature;BME280_humidity;BME280_pressure;Samples;Min_cycle;Max_cycle;Signal;HPM_P1;HPM_P2
2021/09/03 00:01:07;;;;;;;0.93;0.88;;;;;;;30.57;22.70;98853.19;5070257;28;20036;-84
2021/09/03 00:03:33;;;;;;;0.85;0.80;;;;;;;30.57;22.85;98849.59;5070295;28;20039;-84
2021/09/03 00:06:00;;;;;;;1.52;1.23;;;;;;;30.69;22.93;98848.75;5067700;28;20032;-85
2021/09/03 00:08:26;;;;;;;2.97;1.17;;;;;;;30.79;22.56;98847.53;5068096;28;20028;-85
2021/09/03 00:10:52;;;;;;;2.00;1.20;;;;;;;30.63;23.13;98844.91;5066297;28;20029;-85
2021/09/03 00:13:18;;;;;;;1.23;1.02;;;;;;;30.36;23.38;98847.50;5069804;28;20107;-85
2021/09/03 00:15:45;;;;;;;1.58;0.98;;;;;;;30.31;23.11;98850.91;5070112;28;20525;-85
2021/09/03 00:18:11;;;;;;;2.03;1.20;;;;;;;30.41;22.97;98859.03;5069013;28;20099;-85
2021/09/03 00:20:38;;;;;;;2.60;1.02;;;;;;;30.54;23.05;98850.50;5064525;28;20032;-85
2021/09/03 00:23:04;;;;;;;1.65;1.13;;;;;;;30.63;22.76;98851.38;5065141;28;20036;-84
2021/09/03 00:25:30;;;;;;;1.77;1.13;;;;;;;30.77;22.77;98841.53;5067609;28;20025;-85
2021/09/03 00:27:56;;;;;;;1.60;0.98;;;;;;;30.91;22.72;98838.19;5070357;28;20083;-85
2021/09/03 00:30:22;;;;;;;2.45;1.40;;;;;;;31.03;22.54;98839.38;5070425;28;20035;-85
2021/09/03 00:32:48;;;;;;;1.80;1.20;;;;;;;31.08;22.41;98839.56;5049726;28;20366;-85
2021/09/03 00:35:14;;;;;;;1.70;1.27;;;;;;;31.13;22.24;98835.34;5067615;28;20388;-85
2021/09/03 00:37:40;;;;;;;2.17;1.40;;;;;;;31.15;22.12;98839.31;5069855;28;20468;-85
2021/09/03 00:40:07;;;;;;;2.40;1.25;;;;;;;31.13;22.29;98832.50;5069933;28;20059;-84
2021/09/03 00:42:34;;;;;;;2.03;1.30;;;;;;;31.03;22.25;98830.88;5071527;28;20033;-84
2021/09/03 00:45:00;;;;;;;2.03;1.50;;;;;;;30.90;22.26;98827.31;5071056;28;20021;-85
2021/09/03 00:47:26;;;;;;;1.95;1.23;;;;;;;30.85;22.20;98830.72;5052625;28;20365;-84
2021/09/03 00:49:52;;;;;;;1.40;1.17;;;;;;;30.68;22.33;98830.94;5069625;28;20032;-84
2021/09/03 00:52:19;;;;;;;1.30;1.20;;;;;;;30.65;21.93;98828.22;5052236;28;20097;-84
2021/09/03 00:54:45;;;;;;;1.35;1.00;;;;;;;30.46;22.57;98826.47;5068584;28;20029;-85
2021/09/03 00:57:12;;;;;;;1.67;1.10;;;;;;;30.50;22.30;98833.59;5069043;28;20025;-85
2021/09/03 00:59:38;;;;;;;1.98;1.40;;;;;;;30.60;22.29;98826.75;5068845;28;20041;-85
2021/09/03 01:02:04;;;;;;;2.17;1.52;;;;;;;30.67;22.16;98826.50;5068739;28;20029;-85
2021/09/03 01:04:30;;;;;;;1.15;0.98;;;;;;;30.68;22.18;98824.47;5069102;28;20118;-85
2021/09/03 01:06:56;;;;;;;1.98;1.52;;;;;;;30.53;22.56;98823.38;5068694;28;20024;-85
2021/09/03 01:09:22;;;;;;;1.58;1.25;;;;;;;30.61;22.59;98819.84;5065629;28;20488;-84
2021/09/03 01:11:49;;;;;;;1.38;1.10;;;;;;;30.58;22.00;98820.78;5068479;28;20028;-84
2021/09/03 01:14:16;;;;;;;2.25;1.45;;;;;;;30.60;22.34;98817.47;5070119;28;20488;-85
2021/09/03 01:16:42;;;;;;;1.63;1.15;;;;;;;30.55;22.07;98818.06;5068480;28;20028;-85
2021/09/03 01:19:08;;;;;;;1.88;1.23;;;;;;;30.52;22.08;98822.63;5067565;28;20510;-85
2021/09/03 01:21:34;;;;;;;1.27;1.15;;;;;;;30.56;22.02;98814.78;5069684;28;20044;-84
2021/09/03 01:24:00;;;;;;;1.42;1.00;;;;;;;30.51;22.01;98820.22;5068977;28;20061;-85
2021/09/03 01:26:26;;;;;;;2.25;1.40;;;;;;;30.47;22.05;98820.38;5070026;28;20040;-85
2021/09/03 01:28:53;;;;;;;2.33;1.40;;;;;;;30.47;22.34;98817.53;5049109;28;20029;-85
2021/09/03 01:31:19;;;;;;;3.33;1.25;;;;;;;30.28;22.60;98812.13;5050173;28;20484;-84
2021/09/03 01:33:45;;;;;;;7.90;2.45;;;;;;;30.23;22.51;98810.69;5070556;28;20028;-85
2021/09/03 01:36:11;;;;;;;1.70;1.00;;;;;;;30.32;22.95;98810.75;5050707;28;20017;-85
2021/09/03 01:38:37;;;;;;;3.15;1.50;;;;;;;30.09;23.17;98802.69;5063687;28;20446;-85
2021/09/03 01:41:03;;;;;;;2.13;0.88;;;;;;;29.92;23.14;98804.88;5063352;28;20150;-85
2021/09/03 01:43:30;;;;;;;1.20;1.08;;;;;;;30.01;22.98;98799.31;5067653;28;20025;-85
2021/09/03 01:45:56;;;;;;;2.03;1.30;;;;;;;29.87;23.48;98804.69;5068358;28;20093;-85
2021/09/03 01:48:22;;;;;;;2.15;1.35;;;;;;;29.92;23.25;98796.38;5073071;28;20392;-85
2021/09/03 01:50:48;;;;;;;1.48;1.35;;;;;;;29.55;23.95;98802.06;5070700;28;20028;-85
2021/09/03 01:53:14;;;;;;;1.35;1.10;;;;;;;29.70;23.33;98798.34;5069765;28;20025;-85
2021/09/03 01:55:40;;;;;;;2.00;1.27;;;;;;;29.94;23.27;98793.13;5043372;28;20043;-85
2021/09/03 01:58:06;;;;;;;1.45;1.33;;;;;;;30.01;23.42;98802.13;5074205;28;20063;-85
2021/09/03 02:00:32;;;;;;;2.45;1.83;;;;;;;29.89;23.44;98782.38;5072926;28;20025;-85
2021/09/03 02:02:58;;;;;;;1.40;1.10;;;;;;;30.04;22.98;98792.72;5070863;28;20028;-85
2021/09/03 02:05:24;;;;;;;1.98;1.40;;;;;;;30.22;22.86;98780.78;5069705;28;20033;-85
2021/09/03 02:07:50;;;;;;;1.58;1.30;;;;;;;30.41;22.72;98779.69;5043769;28;20055;-85
2021/09/03 02:10:16;;;;;;;1.85;1.35;;;;;;;30.19;22.90;98766.72;5069360;28;20094;-85
2021/09/03 02:12:42;;;;;;;1.23;1.13;;;;;;;30.22;22.75;98771.50;5071884;28;20099;-85
2021/09/03 02:15:09;;;;;;;1.95;1.00;;;;;;;30.23;22.77;98779.50;5070291;28;20042;-85
2021/09/03 02:17:35;;;;;;;1.23;1.05;;;;;;;30.18;22.93;98774.44;5055339;28;20081;-85
2021/09/03 02:20:02;;;;;;;1.13;1.02;;;;;;;30.32;22.71;98764.63;5068843;28;20124;-85
2021/09/03 02:22:28;;;;;;;1.35;0.93;;;;;;;30.49;22.63;98758.34;5073407;28;20032;-85
2021/09/03 02:24:54;;;;;;;1.70;1.15;;;;;;;30.38;22.29;98760.00;5070297;28;20663;-85
2021/09/03 02:27:20;;;;;;;2.92;1.40;;;;;;;30.37;22.78;98756.38;5055384;28;20031;-85
2021/09/03 02:29:46;;;;;;;2.47;1.33;;;;;;;30.51;22.49;98750.16;5071665;28;20040;-85
2021/09/03 02:32:13;;;;;;;2.42;1.35;;;;;;;30.64;22.38;98738.75;5065605;28;20094;-85
2021/09/03 02:34:40;;;;;;;1.63;1.10;;;;;;;30.72;22.24;98745.72;5072078;28;20024;-85
2021/09/03 02:37:06;;;;;;;1.83;1.42;;;;;;;30.37;22.15;98741.41;5071651;28;20086;-85
2021/09/03 02:39:32;;;;;;;1.67;1.05;;;;;;;30.05;22.72;98734.84;5068384;28;20447;-84
2021/09/03 02:41:58;;;;;;;0.98;0.88;;;;;;;30.17;22.54;98736.03;5070647;28;20522;-85
2021/09/03 02:44:24;;;;;;;1.60;1.42;;;;;;;30.33;22.30;98738.72;5060849;28;20037;-85
2021/09/03 02:46:50;;;;;;;2.58;1.58;;;;;;;30.32;22.07;98733.47;5071895;28;20500;-84
2021/09/03 02:49:16;;;;;;;1.95;1.30;;;;;;;30.39;22.31;98731.19;5071732;28;20039;-85
2021/09/03 02:51:42;;;;;;;1.20;1.08;;;;;;;30.38;21.98;98726.78;5071127;28;20373;-85
2021/09/03 02:54:08;;;;;;;2.13;1.55;;;;;;;30.35;21.95;98730.53;5069696;28;20527;-85
2021/09/03 02:56:34;;;;;;;1.60;1.00;;;;;;;29.94;22.03;98730.81;5069387;28;20036;-85
2021/09/03 02:59:00;;;;;;;1.65;1.25;;;;;;;29.78;22.40;98728.16;5068917;28;20102;-85
2021/09/03 03:01:26;;;;;;;1.30;1.17;;;;;;;29.39;23.16;98726.59;5067776;28;20033;-85
2021/09/03 03:03:52;;;;;;;1.52;1.25;;;;;;;29.60;22.83;98725.09;5071578;28;20024;-85
2021/09/03 03:06:18;;;;;;;3.35;1.70;;;;;;;29.57;22.94;98718.31;5071708;28;20044;-85
2021/09/03 03:08:44;;;;;;;2.38;1.50;;;;;;;29.44;23.23;98723.22;5066478;28;20024;-85
2021/09/03 03:11:10;;;;;;;1.90;1.35;;;;;;;29.54;22.54;98736.22;5067934;28;20037;-85
2021/09/03 03:13:37;;;;;;;3.53;1.30;;;;;;;29.70;23.99;98726.78;5070458;28;20032;-85
2021/09/03 03:16:03;;;;;;;2.90;1.30;;;;;;;29.76;22.96;98725.75;5072328;28;20024;-85
2021/09/03 03:18:29;;;;;;;1.20;1.10;;;;;;;29.78;22.45;98725.31;5070413;28;20052;-85
2021/09/03 03:20:55;;;;;;;2.42;1.40;;;;;;;29.77;22.29;98726.56;5068488;28;20025;-85
2021/09/03 03:23:21;;;;;;;1.35;0.80;;;;;;;29.38;22.55;98725.81;5067382;28;20063;-85
2021/09/03 03:25:48;;;;;;;1.63;1.00;;;;;;;29.42;22.75;98722.88;5070630;28;20021;-85
2021/09/03 03:28:14;;;;;;;1.85;1.10;;;;;;;29.59;22.89;98724.31;5064962;28;20039;-85
2021/09/03 03:30:41;;;;;;;2.58;1.55;;;;;;;29.50;22.51;98731.94;5069232;28;20028;-85
2021/09/03 03:33:07;;;;;;;1.33;1.05;;;;;;;29.50;22.58;98724.22;5067956;28;20043;-85
2021/09/03 03:35:33;;;;;;;1.38;1.23;;;;;;;29.66;22.32;98731.78;5070981;28;20495;-85
2021/09/03 03:37:59;;;;;;;2.38;1.35;;;;;;;29.80;22.46;98726.41;5070889;28;20094;-85
2021/09/03 03:40:25;;;;;;;1.40;1.05;;;;;;;29.80;22.48;98722.81;5069150;28;20028;-85
2021/09/03 03:42:51;;;;;;;2.83;1.00;;;;;;;29.84;22.43;98721.44;5062696;28;20039;-85
2021/09/03 03:45:17;;;;;;;1.23;1.05;;;;;;;29.93;22.28;98726.38;5068725;28;20060;-85
2021/09/03 03:47:43;;;;;;;2.05;1.33;;;;;;;29.91;22.31;98723.22;5071843;28;20040;-85
2021/09/03 03:50:10;;;;;;;1.45;1.00;;;;;;;29.84;22.57;98724.28;5053377;28;20399;-85
2021/09/03 03:52:36;;;;;;;1.20;0.90;;;;;;;29.99;22.58;98719.69;5071546;28;20032;-85
2021/09/03 03:55:02;;;;;;;1.60;1.13;;;;;;;29.93;22.41;98717.91;5067356;28;20491;-85
2021/09/03 03:57:28;;;;;;;1.80;0.93;;;;;;;29.90;22.66;98719.59;5048560;28;20048;-85
2021/09/03 03:59:54;;;;;;;1.90;1.17;;;;;;;29.98;22.60;98720.94;5070444;28;20028;-85
2021/09/03 04:02:20;;;;;;;1.70;1.00;;;;;;;30.06;22.55;98718.63;5048785;28;20037;-85
2021/09/03 04:04:47;;;;;;;2.38;1.05;;;;;;;29.97;22.69;98718.56;5050799;28;20396;-85
2021/09/03 04:07:13;;;;;;;2.47;1.15;;;;;;;29.89;22.87;98718.03;5069100;28;20028;-85
2021/09/03 04:09:39;;;;;;;1.30;1.00;;;;;;;30.07;22.97;98717.38;5050952;28;20025;-85
2021/09/03 04:12:05;;;;;;;3.45;1.30;;;;;;;30.30;22.89;98714.09;5067049;28;20801;-85
2021/09/03 04:14:31;;;;;;;2.95;1.35;;;;;;;30.56;22.54;98712.72;5070446;28;20475;-85
2021/09/03 04:16:57;;;;;;;4.45;1.55;;;;;;;30.82;22.50;98710.50;5069729;28;20039;-85
2021/09/03 04:19:23;;;;;;;1.48;1.05;;;;;;;30.64;22.29;98716.84;5067591;28;20454;-85
2021/09/03 04:21:49;;;;;;;1.33;1.02;;;;;;;30.52;22.65;98712.09;5066707;28;20483;-84
2021/09/03 04:24:15;;;;;;;1.55;1.00;;;;;;;30.70;22.44;98700.03;5054000;28;20049;-85
2021/09/03 04:26:43;;;;;;;1.55;1.10;;;;;;;30.74;22.78;98704.31;5065434;28;20504;-85
2021/09/03 04:29:09;;;;;;;1.45;1.10;;;;;;;30.91;22.50;98702.06;5062795;28;20036;-85
2021/09/03 04:31:35;;;;;;;1.55;0.98;;;;;;;30.79;22.81;98705.75;5061542;28;20041;-85
2021/09/03 04:34:01;;;;;;;1.92;1.08;;;;;;;30.76;23.11;98709.50;5073195;28;20460;-85
2021/09/03 04:36:27;;;;;;;1.73;1.30;;;;;;;31.04;22.78;98704.81;5072072;28;20033;-85
2021/09/03 04:38:53;;;;;;;1.75;1.33;;;;;;;31.25;22.64;98701.88;5069909;28;20063;-85
2021/09/03 04:41:19;;;;;;;1.13;0.95;;;;;;;31.25;22.82;98706.78;5070175;28;20388;-85
2021/09/03 04:43:46;;;;;;;1.73;1.00;;;;;;;31.06;23.16;98708.75;5071547;28;20081;-85
2021/09/03 04:46:12;;;;;;;1.50;1.30;;;;;;;31.00;23.25;98707.78;5067383;28;20545;-85
2021/09/03 04:48:38;;;;;;;1.48;1.00;;;;;;;30.64;23.61;98702.69;5070743;28;20528;-86
2021/09/03 04:51:04;;;;;;;1.70;0.90;;;;;;;30.87;23.49;98706.28;5067090;28;20028;-86
2021/09/03 04:53:30;;;;;;;1.38;1.08;;;;;;;30.69;23.87;98701.31;5067990;28;20032;-86
2021/09/03 04:55:56;;;;;;;1.27;1.10;;;;;;;30.69;23.83;98713.41;5069256;28;20021;-86
2021/09/03 04:58:22;;;;;;;2.45;1.45;;;;;;;31.04;23.51;98704.81;5068218;28;20035;-86
2021/09/03 05:00:48;;;;;;;3.00;1.20;;;;;;;31.35;23.41;98705.53;5052370;28;20032;-87
2021/09/03 05:03:14;;;;;;;1.40;0.90;;;;;;;31.26;23.54;98700.63;5063246;28;20028;-87
2021/09/03 05:05:40;;;;;;;1.63;1.10;;;;;;;31.06;23.94;98703.09;5069199;28;20051;-87
2021/09/03 05:08:07;;;;;;;1.17;1.08;;;;;;;31.21;23.81;98698.41;5068624;28;20505;-87
2021/09/03 05:10:33;;;;;;;1.20;1.08;;;;;;;31.44;23.91;98694.22;5067031;28;20032;-87
2021/09/03 05:12:59;;;;;;;0.80;0.80;;;;;;;31.46;23.91;98696.59;5070101;28;20063;-86
2021/09/03 05:15:37;;;;;;;1.58;1.23;;;;;;;31.50;23.86;98692.34;5067276;28;20032;-87
2021/09/03 05:18:03;;;;;;;2.22;1.55;;;;;;;31.69;23.53;98693.97;5070440;28;20024;-87
2021/09/03 05:20:30;;;;;;;2.22;1.13;;;;;;;31.83;23.70;98698.22;5073110;28;20119;-88
2021/09/03 05:22:56;;;;;;;2.95;1.02;;;;;;;31.69;23.93;98699.66;5072187;28;20024;-83
2021/09/03 05:25:24;;;;;;;1.08;0.98;;;;;;;31.90;24.06;98701.53;5067699;28;20052;-84
2021/09/03 05:27:50;;;;;;;2.08;1.35;;;;;;;32.19;23.62;98698.25;5066030;28;20025;-84
2021/09/03 05:30:17;;;;;;;2.53;1.20;;;;;;;32.37;23.11;98691.75;5056447;28;20059;-84
2021/09/03 05:32:43;;;;;;;1.33;1.10;;;;;;;32.59;23.43;98696.00;5075592;28;20032;-84
2021/09/03 05:35:10;;;;;;;1.40;1.05;;;;;;;32.59;23.21;98693.16;5076010;28;20048;-84
2021/09/03 05:37:37;;;;;;;1.58;1.23;;;;;;;32.67;22.68;98690.75;5074840;28;20074;-84
2021/09/03 05:40:07;;;;;;;1.52;1.23;;;;;;;32.73;23.23;98688.84;5076032;28;20085;-84
2021/09/03 05:42:33;;;;;;;1.80;1.23;;;;;;;32.83;23.34;98696.06;5074893;28;20037;-84
2021/09/03 05:44:59;;;;;;;2.13;1.23;;;;;;;33.01;22.96;98695.19;5075942;28;20020;-84
2021/09/03 05:47:25;;;;;;;1.73;1.33;;;;;;;32.65;23.97;98696.16;5075751;28;20052;-84
2021/09/03 05:49:52;;;;;;;3.67;1.55;;;;;;;32.68;23.85;98693.13;5075360;28;20438;-84
2021/09/03 05:52:18;;;;;;;2.05;1.40;;;;;;;32.46;24.21;98697.41;5075742;28;20033;-84
2021/09/03 05:54:44;;;;;;;2.45;1.23;;;;;;;32.72;24.41;98696.56;5075835;28;20037;-84
2021/09/03 05:57:10;;;;;;;2.17;1.35;;;;;;;33.14;24.01;98696.59;5074420;28;20020;-84
2021/09/03 05:59:36;;;;;;;1.42;1.15;;;;;;;33.44;23.95;98689.00;5075583;28;20033;-84
2021/09/03 06:02:02;;;;;;;2.25;1.45;;;;;;;33.66;23.48;98691.56;5080989;28;20031;-84
2021/09/03 06:04:28;;;;;;;1.80;1.45;;;;;;;33.76;23.20;98690.25;5093823;28;20112;-84
2021/09/03 06:06:54;;;;;;;1.85;1.48;;;;;;;33.91;23.42;98696.78;5075793;28;20078;-84
2021/09/03 06:09:20;;;;;;;3.92;1.70;;;;;;;34.03;23.11;98693.69;5070074;28;20037;-84
2021/09/03 06:11:46;;;;;;;2.50;1.83;;;;;;;34.01;22.72;98690.50;5072987;28;20032;-84
2021/09/03 06:14:12;;;;;;;1.60;1.10;;;;;;;33.97;23.54;98687.06;5075518;28;20086;-84
2021/09/03 06:16:38;;;;;;;2.25;1.73;;;;;;;33.95;22.94;98689.63;5074978;28;20040;-84
2021/09/03 06:19:04;;;;;;;2.40;1.30;;;;;;;34.15;23.07;98688.97;5043336;28;20041;-84
2021/09/03 06:21:30;;;;;;;2.38;1.52;;;;;;;34.16;24.24;98684.88;5074238;28;20106;-84
2021/09/03 06:23:58;;;;;;;2.15;1.77;;;;;;;34.28;23.95;98689.50;5074478;28;20020;-84
2021/09/03 06:26:24;;;;;;;2.85;1.67;;;;;;;34.24;23.59;98691.75;5070881;28;20024;-85
2021/09/03 06:28:50;;;;;;;1.88;1.27;;;;;;;34.13;23.80;98691.53;5072785;28;20040;-84
2021/09/03 06:31:16;;;;;;;3.35;1.60;;;;;;;34.16;23.18;98689.78;5075155;28;20033;-84
2021/09/03 06:33:42;;;;;;;2.67;2.00;;;;;;;33.97;24.07;98686.28;5075081;28;20086;-85
2021/09/03 06:36:08;;;;;;;6.60;1.85;;;;;;;33.88;23.99;98695.69;5056841;28;20075;-84
2021/09/03 06:38:34;;;;;;;3.55;2.13;;;;;;;33.65;24.59;98696.50;5074021;28;20028;-85
2021/09/03 06:41:00;;;;;;;2.25;1.50;;;;;;;33.80;24.67;98682.28;5056361;28;20511;-85
2021/09/03 06:43:27;;;;;;;2.17;1.52;;;;;;;33.86;23.93;98686.06;5074922;28;20063;-85
2021/09/03 06:45:53;;;;;;;1.50;1.30;;;;;;;33.98;23.39;98690.72;5074941;28;20103;-85
2021/09/03 06:48:22;;;;;;;3.40;1.95;;;;;;;33.98;24.43;98688.63;5075157;28;20039;-85
2021/09/03 06:50:49;;;;;;;1.73;1.42;;;;;;;33.97;24.49;98687.06;5074772;28;20045;-85
2021/09/03 06:53:15;;;;;;;2.33;1.38;;;;;;;34.00;24.36;98680.38;5074557;28;20025;-85
2021/09/03 06:55:41;;;;;;;2.28;1.80;;;;;;;34.22;24.42;98690.66;5074165;28;20395;-85
2021/09/03 06:58:07;;;;;;;3.03;1.65;;;;;;;34.07;24.36;98684.97;5074026;28;20539;-85
2021/09/03 07:00:33;;;;;;;2.25;1.40;;;;;;;34.04;24.10;98686.72;5074500;28;20037;-83
2021/09/03 07:03:00;;;;;;;2.55;1.77;;;;;;;33.91;24.75;98685.38;5073426;28;20028;-83
2021/09/03 07:05:26;;;;;;;1.70;1.20;;;;;;;34.10;24.08;98678.25;5072829;28;20035;-83
2021/09/03 07:07:52;;;;;;;2.50;1.83;;;;;;;33.33;25.37;98683.06;5061883;28;20037;-83
2021/09/03 07:10:18;;;;;;;2.63;1.42;;;;;;;33.57;24.61;98675.34;5069216;28;20047;-83
2021/09/03 07:12:44;;;;;;;2.25;1.50;;;;;;;33.43;24.80;98678.88;5074325;28;20094;-83
2021/09/03 07:15:11;;;;;;;2.75;1.98;;;;;;;33.23;24.81;98685.19;5073102;28;20021;-82
2021/09/03 07:17:37;;;;;;;3.08;2.10;;;;;;;33.26;25.33;98677.72;5074177;28;20040;-82
2021/09/03 07:20:03;;;;;;;6.28;1.98;;;;;;;33.19;25.49;98678.06;5073704;28;20056;-82
2021/09/03 07:22:29;;;;;;;2.97;2.22;;;;;;;32.86;26.11;98672.34;5073149;28;20057;-83
2021/09/03 07:24:56;;;;;;;1.83;1.60;;;;;;;33.44;24.81;98667.00;5072814;28;20024;-82
2021/09/03 07:27:22;;;;;;;2.90;2.47;;;;;;;32.90;25.79;98666.50;5055137;28;20105;-84
2021/09/03 07:29:48;;;;;;;5.05;2.95;;;;;;;33.52;24.95;98670.28;5058573;28;20028;-85
2021/09/03 07:32:14;;;;;;;4.57;2.97;;;;;;;33.84;25.35;98672.28;5073377;28;20495;-84
2021/09/03 07:34:40;;;;;;;4.07;2.22;;;;;;;33.88;26.16;98669.25;5073049;28;20029;-84
2021/09/03 07:37:06;;;;;;;3.00;2.17;;;;;;;33.75;25.05;98665.88;5072572;28;20028;-84
2021/09/03 07:39:32;;;;;;;3.28;1.90;;;;;;;33.38;25.45;98660.41;5073329;28;20043;-84
2021/09/03 07:41:58;;;;;;;2.70;2.10;;;;;;;32.95;26.54;98655.25;5073024;28;20048;-84
2021/09/03 07:44:25;;;;;;;3.03;2.15;;;;;;;33.18;26.47;98656.59;5073631;28;20476;-84
2021/09/03 07:46:51;;;;;;;3.08;2.00;;;;;;;33.64;25.91;98662.78;5073509;28;20496;-83
2021/09/03 07:49:17;;;;;;;2.55;1.90;;;;;;;33.73;26.41;98659.88;5072997;28;20037;-83
2021/09/03 07:51:43;;;;;;;4.30;2.53;;;;;;;33.84;25.29;98648.72;5073523;28;20044;-83
2021/09/03 07:54:09;;;;;;;2.72;2.10;;;;;;;33.42;26.06;98661.00;5073495;28;20086;-82
2021/09/03 07:56:35;;;;;;;2.90;2.53;;;;;;;32.89;27.11;98654.31;5073582;28;20071;-82
2021/09/03 07:59:01;;;;;;;2.50;2.03;;;;;;;33.69;26.58;98660.06;5070839;28;20032;-83
2021/09/03 08:01:28;;;;;;;2.90;2.05;;;;;;;34.37;25.56;98657.25;5072683;28;20037;-83
2021/09/03 08:03:54;;;;;;;4.63;1.90;;;;;;;33.96;25.17;98659.03;5072714;28;20024;-83
2021/09/03 08:06:20;;;;;;;2.88;2.25;;;;;;;33.56;25.94;98653.81;5072664;28;20040;-82
2021/09/03 08:08:46;;;;;;;2.92;2.10;;;;;;;34.00;25.13;98651.88;5071452;28;20033;-83
2021/09/03 08:11:12;;;;;;;4.32;2.80;;;;;;;33.59;25.54;98644.31;5072172;28;20035;-83
2021/09/03 08:13:38;;;;;;;3.53;2.50;;;;;;;33.51;25.44;98645.16;5073226;28;20029;-82
2021/09/03 08:16:04;;;;;;;3.00;2.40;;;;;;;33.24;27.37;98635.50;5073010;28;20032;-82
2021/09/03 08:18:30;;;;;;;3.53;1.98;;;;;;;33.22;26.40;98637.25;5053824;28;20084;-83
2021/09/03 08:20:57;;;;;;;2.80;2.28;;;;;;;32.43;26.91;98639.47;5073164;28;20439;-82
2021/09/03 08:23:23;;;;;;;3.78;3.00;;;;;;;31.91;28.40;98634.16;5073209;28;20059;-82
2021/09/03 08:25:49;;;;;;;3.90;2.92;;;;;;;32.18;27.63;98639.03;5073107;28;20029;-82
2021/09/03 08:28:15;;;;;;;4.30;3.00;;;;;;;32.29;27.50;98633.66;5072910;28;20035;-82
2021/09/03 08:30:42;;;;;;;3.40;2.60;;;;;;;32.69;26.32;98634.97;5073470;28;20035;-82
2021/09/03 08:33:08;;;;;;;3.03;2.72;;;;;;;32.41;28.23;98638.34;5072535;28;20034;-82
2021/09/03 08:35:34;;;;;;;5.15;2.78;;;;;;;33.12;27.15;98642.22;5072259;28;20078;-82
2021/09/03 08:38:00;;;;;;;4.50;2.53;;;;;;;32.83;27.42;98638.38;5072991;28;20044;-82
2021/09/03 08:40:26;;;;;;;4.13;3.00;;;;;;;32.55;26.89;98632.81;5072603;28;20036;-82
2021/09/03 08:42:52;;;;;;;2.83;2.50;;;;;;;32.34;28.66;98630.16;5072484;28;20055;-82
2021/09/03 08:45:18;;;;;;;5.15;3.33;;;;;;;32.09;27.08;98634.94;5072318;28;20579;-82
2021/09/03 08:47:45;;;;;;;3.08;2.70;;;;;;;32.17;26.66;98626.09;5072804;28;20033;-82
2021/09/03 08:50:14;;;;;;;4.80;3.25;;;;;;;32.35;26.88;98629.69;5072913;28;20048;-82
2021/09/03 08:52:44;;;;;;;4.47;2.47;;;;;;;32.46;28.12;98629.19;5073321;28;20116;-83
2021/09/03 08:55:11;;;;;;;3.42;2.97;;;;;;;31.89;28.04;98628.94;5076898;28;20037;-82
2021/09/03 08:57:38;;;;;;;2.65;2.42;;;;;;;31.28;30.87;98626.34;5077059;28;20029;-82
2021/09/03 09:00:25;;;;;;;4.30;2.80;;;;;;;31.58;28.32;98622.63;5076182;28;20043;-82
2021/09/03 09:03:01;;;;;;;4.53;3.00;;;;;;;31.83;27.89;98619.50;5070977;28;20037;-82
2021/09/03 09:05:46;;;;;;;3.25;2.95;;;;;;;31.20;27.36;98617.34;5058402;28;20395;-82
2021/09/03 09:08:12;;;;;;;3.08;2.78;;;;;;;31.85;27.65;98611.28;5077038;28;20024;-82
2021/09/03 09:11:13;;;;;;;3.30;2.60;;;;;;;32.33;25.63;98611.53;5076471;28;20086;-82
2021/09/03 09:13:43;;;;;;;3.78;2.38;;;;;;;32.07;25.88;98613.94;5070411;28;20036;-82
2021/09/03 09:16:17;;;;;;;3.28;2.47;;;;;;;32.55;25.74;98614.97;5076081;28;20115;-83
2021/09/03 09:18:45;;;;;;;2.55;2.15;;;;;;;32.65;25.40;98616.53;5076005;28;20559;-83
2021/09/03 09:21:17;;;;;;;3.05;2.58;;;;;;;32.89;25.29;98605.16;5071045;28;20075;-82
2021/09/03 09:23:55;;;;;;;2.92;2.40;;;;;;;33.07;25.78;98605.88;5076297;28;20040;-83
2021/09/03 09:26:25;;;;;;;3.88;2.45;;;;;;;33.41;25.31;98602.50;5076325;28;20035;-82
2021/09/03 09:28:52;;;;;;;4.18;2.55;;;;;;;33.04;25.64;98606.88;5075842;28;20124;-83
2021/09/03 09:31:35;;;;;;;3.33;2.38;;;;;;;33.37;25.46;98613.25;5074971;28;20123;-83
2021/09/03 09:34:22;;;;;;;3.05;2.20;;;;;;;34.25;24.77;98596.41;5074765;28;20036;-83
2021/09/03 09:36:53;;;;;;;2.75;2.47;;;;;;;34.02;23.71;98598.03;5075794;28;20436;-82
2021/09/03 09:39:24;;;;;;;3.78;2.40;;;;;;;34.29;24.47;98599.03;5076237;28;20029;-83
2021/09/03 09:42:00;;;;;;;;;;;;;;;33.58;25.04;98594.34;5076144;28;20115;-82
2021/09/03 09:44:31;;;;;;;3.20;2.60;;;;;;;33.38;24.30;98597.78;5075000;28;19951;-82
2021/09/03 09:47:07;;;;;;;3.13;1.98;;;;;;;32.50;26.68;98604.25;5073223;28;20036;-82
2021/09/03 09:49:34;;;;;;;3.17;2.45;;;;;;;32.82;24.83;98592.09;5076027;28;20105;-82
2021/09/03 09:52:00;;;;;;;3.17;2.60;;;;;;;32.68;24.58;98592.78;5057664;28;20532;-83
2021/09/03 09:54:27;;;;;;;5.53;2.70;;;;;;;33.38;24.18;98599.81;5075404;28;20037;-83
2021/09/03 09:56:59;;;;;;;2.65;2.28;;;;;;;33.58;24.88;98597.19;5074914;28;20040;-83
2021/09/03 09:59:26;;;;;;;4.38;2.38;;;;;;;34.09;24.84;98585.50;5075475;28;20028;-83
2021/09/03 10:02:00;;;;;;;2.00;1.80;;;;;;;33.16;24.64;98590.81;5075566;28;20496;-82
2021/09/03 10:04:28;;;;;;;2.65;2.13;;;;;;;33.62;25.53;98586.38;5074400;28;20024;-83
2021/09/03 10:06:57;;;;;;;3.00;2.05;;;;;;;34.14;23.58;98579.09;5075689;28;20033;-82
2021/09/03 10:09:26;;;;;;;2.28;1.98;;;;;;;34.86;23.15;98573.81;5075583;28;20039;-82
2021/09/03 10:11:55;;;;;;;3.15;2.10;;;;;;;34.48;25.08;98566.97;5075572;28;20043;-82
2021/09/03 10:14:24;;;;;;;2.50;1.77;;;;;;;35.17;23.21;98560.50;5056319;28;20491;-83
2021/09/03 10:16:52;;;;;;;3.42;1.60;;;;;;;35.27;23.41;98576.22;5075263;28;20460;-83
2021/09/03 10:19:30;;;;;;;2.70;1.90;;;;;;;34.10;23.97;98575.66;5075223;28;20048;-82
2021/09/03 10:22:19;;;;;;;2.45;2.08;;;;;;;34.60;24.59;98574.47;5071710;28;20028;-83
2021/09/03 10:24:45;;;;;;;1.77;1.60;;;;;;;35.03;22.04;98555.66;5071220;28;20492;-83
2021/09/03 10:27:13;;;;;;;2.45;1.90;;;;;;;34.88;23.93;98565.53;5075258;28;20033;-82
2021/09/03 10:29:40;;;;;;;2.45;2.00;;;;;;;35.03;22.71;98561.34;5074987;28;20037;-83
2021/09/03 10:32:13;;;;;;;1.70;1.60;;;;;;;35.40;21.58;98565.22;5074383;28;20024;-82
2021/09/03 10:34:42;;;;;;;2.55;2.05;;;;;;;33.90;23.76;98564.13;5074749;28;20052;-82
2021/09/03 10:37:14;;;;;;;2.47;2.15;;;;;;;34.02;23.16;98563.84;5074940;28;20060;-82
2021/09/03 10:39:46;;;;;;;2.15;1.95;;;;;;;34.09;24.00;98559.84;5073990;28;20094;-83
2021/09/03 10:45:09;;;;;;;2.17;1.75;;;;;;;34.22;23.01;98543.22;5070229;28;20433;-82
2021/09/03 10:47:39;;;;;;;2.63;2.13;;;;;;;33.48;25.60;98535.84;5070786;28;20029;-82
2021/09/03 10:50:26;;;;;;;2.13;1.80;;;;;;;34.04;23.08;98532.03;5076555;28;20040;-82
2021/09/03 10:53:05;;;;;;;1.88;1.65;;;;;;;34.81;22.74;98541.06;5093417;28;20028;-82
2021/09/03 10:55:56;;;;;;;2.40;1.75;;;;;;;34.10;22.45;98529.28;5075145;28;20025;-82
2021/09/03 10:58:37;;;;;;;2.08;1.77;;;;;;;33.99;23.66;98533.47;5074489;28;20028;-83
2021/09/03 11:01:28;;;;;;;2.67;2.00;;;;;;;34.41;23.40;98524.59;5074604;28;20408;-82
2021/09/03 11:04:15;;;;;;;3.55;1.90;;;;;;;35.09;22.13;98527.19;5066054;28;20041;-82
2021/09/03 11:06:50;;;;;;;5.30;1.55;;;;;;;35.45;22.09;98522.97;5074425;28;20120;-82
2021/09/03 11:09:16;;;;;;;2.83;1.90;;;;;;;35.25;22.54;98518.84;5074147;28;20036;-82
2021/09/03 11:11:43;;;;;;;3.45;2.00;;;;;;;34.88;24.67;98509.25;5074113;28;20036;-82
2021/09/03 11:14:16;;;;;;;2.80;2.45;;;;;;;33.44;25.21;98524.63;5074376;28;20085;-82
2021/09/03 11:16:44;;;;;;;3.05;2.47;;;;;;;34.09;23.21;98519.94;5074514;28;20040;-83
2021/09/03 11:19:18;;;;;;;1.70;1.60;;;;;;;34.37;23.27;98514.69;5073822;28;20052;-82
2021/09/03 11:21:48;;;;;;;2.25;1.95;;;;;;;33.78;23.97;98519.59;5074003;28;20028;-82
2021/09/03 11:24:20;;;;;;;2.20;2.00;;;;;;;34.94;22.87;98512.19;5074268;28;20115;-82
2021/09/03 11:26:48;;;;;;;2.25;2.05;;;;;;;34.68;22.67;98515.69;5074183;28;20031;-82
2021/09/03 11:29:27;;;;;;;2.47;1.90;;;;;;;34.34;22.45;98507.91;5074290;28;20040;-82
2021/09/03 11:31:59;;;;;;;3.42;2.10;;;;;;;34.98;21.63;98504.19;5073423;28;20025;-83
2021/09/03 11:34:47;;;;;;;2.70;2.03;;;;;;;34.80;21.13;98501.63;5073463;28;20043;-82
2021/09/03 11:37:34;;;;;;;2.10;1.65;;;;;;;35.69;21.46;98500.63;5054355;28;20037;-82
2021/09/03 11:40:12;;;;;;;2.13;1.92;;;;;;;34.59;20.82;98490.16;5057903;28;20029;-82